Time;durP1;ratioP1;P1;durP2;ratioP2;P2;SDS_P1;SDS_P2;PMS_P1;PMS_P2;Temp;Humidity;BMP_temperature;BMP_pressure;BME280_temperature;BME280_humidity;BME280_pressure;Samples;Min_cycle;Max_cycle;Signal;HPM_P1;HPM_P2
2022/06/04 00:01:42;;;;;;;3.65;3.45;;;22.60;52.30;;;;;;5012742;28;20244;-71
2022/06/04 00:04:12;;;;;;;3.80;3.50;;;22.60;52.50;;;;;;5012586;28;20577;-71
2022/06/04 00:06:39;;;;;;;3.50;3.30;;;22.60;52.90;;;;;;5014711;28;20185;-72
2022/06/04 00:09:06;;;;;;;3.67;3.47;;;22.60;52.30;;;;;;5012663;28;20219;-71
2022/06/04 00:17:14;;;;;;;3.78;3.50;;;22.60;52.30;;;;;;4953521;29;20218;-71
2022/06/04 00:19:42;;;;;;;3.40;3.20;;;22.60;52.30;;;;;;4994293;28;20236;-71
2022/06/04 00:22:09;;;;;;;3.42;3.22;;;22.60;52.80;;;;;;5012306;28;20235;-71
2022/06/04 00:24:36;;;;;;;3.78;3.47;;;22.60;52.30;;;;;;5012493;28;20201;-71
2022/06/04 00:27:03;;;;;;;3.78;3.47;;;22.60;52.30;;;;;;5012469;28;20196;-71
2022/06/04 00:29:32;;;;;;;3.50;3.30;;;22.60;52.30;;;;;;5016788;28;20251;-72
2022/06/04 00:31:59;;;;;;;3.28;3.08;;;22.50;52.20;;;;;;5017993;28;20208;-72
2022/06/04 00:34:26;;;;;;;3.30;3.10;;;22.60;52.30;;;;;;5022008;28;20196;-72
2022/06/04 00:36:53;;;;;;;3.75;3.47;;;22.60;52.30;;;;;;5017557;28;20243;-71
2022/06/04 00:39:20;;;;;;;3.60;3.30;;;22.50;52.20;;;;;;5017440;28;20212;-72
2022/06/04 00:41:51;;;;;;;3.50;3.30;;;22.50;52.20;;;;;;5016380;28;20381;-71
2022/06/04 00:44:55;;;;;;;3.60;3.40;;;22.50;52.20;;;;;;5016244;28;20201;-71
2022/06/04 00:47:25;;;;;;;3.72;3.42;;;22.50;52.20;;;;;;4998542;28;20210;-71
2022/06/04 00:49:53;;;;;;;3.58;3.38;;;22.50;52.20;;;;;;5017345;28;20192;-72
2022/06/04 00:52:19;;;;;;;3.50;3.30;;;22.50;52.20;;;;;;5018048;28;20217;-72
2022/06/04 00:54:47;;;;;;;3.67;3.38;;;22.50;52.20;;;;;;5017238;28;20280;-72
2022/06/04 00:57:33;;;;;;;3.42;3.20;;;22.50;52.20;;;;;;5015906;28;20200;-71
2022/06/04 01:00:03;;;;;;;3.40;3.20;;;22.50;52.20;;;;;;5014344;28;20200;-71
2022/06/04 01:02:37;;;;;;;3.65;3.45;;;22.50;52.20;;;;;;5015871;28;20197;-71
2022/06/04 01:05:08;;;;;;;3.85;3.55;;;22.50;52.30;;;;;;5015841;28;20571;-71
2022/06/04 01:07:53;;;;;;;3.80;3.60;;;22.40;52.30;;;;;;5015739;28;20211;-71
2022/06/04 01:10:27;;;;;;;3.67;3.40;;;22.40;52.20;;;;;;5015724;28;20196;-71
2022/06/04 01:12:59;;;;;;;3.58;3.38;;;22.40;52.30;;;;;;5017359;28;20181;-71
2022/06/04 01:15:33;;;;;;;3.55;3.35;;;22.40;52.30;;;;;;5017158;28;20638;-71
2022/06/04 01:18:08;;;;;;;3.78;3.58;;;22.40;52.30;;;;;;5017472;28;20209;-71
2022/06/04 01:20:39;;;;;;;3.65;3.40;;;22.40;52.30;;;;;;5023229;28;20181;-71
2022/06/04 01:23:36;;;;;;;3.50;3.30;;;22.40;52.30;;;;;;5016511;28;20192;-71
2022/06/04 01:26:35;;;;;;;3.92;3.63;;;22.40;52.30;;;;;;5014863;28;20236;-71
2022/06/04 01:29:06;;;;;;;3.60;3.40;;;22.40;52.40;;;;;;5016640;28;20212;-71
2022/06/04 01:31:36;;;;;;;3.50;3.20;;;22.40;52.50;;;;;;5015234;28;20208;-71
2022/06/04 01:34:05;;;;;;;3.78;3.53;;;22.30;52.50;;;;;;5015257;28;20192;-71
2022/06/04 01:36:34;;;;;;;3.55;3.35;;;22.40;52.60;;;;;;5015198;28;20622;-71
2022/06/04 01:39:03;;;;;;;3.78;3.58;;;22.40;52.60;;;;;;5015069;28;20307;-71
2022/06/04 01:41:33;;;;;;;3.70;3.40;;;22.30;53.20;;;;;;5015174;28;20200;-71
2022/06/04 01:44:01;;;;;;;3.33;3.13;;;22.30;52.60;;;;;;5015130;28;20616;-71
2022/06/04 01:46:30;;;;;;;3.60;3.40;;;22.30;52.60;;;;;;5014826;28;20624;-71
2022/06/04 01:48:58;;;;;;;3.78;3.47;;;22.30;52.70;;;;;;5014966;28;20225;-71
2022/06/04 01:51:27;;;;;;;3.75;3.55;;;22.30;52.70;;;;;;5014846;28;20224;-71
2022/06/04 01:53:56;;;;;;;3.63;3.42;;;22.30;52.70;;;;;;5014843;28;20737;-71
2022/06/04 01:56:26;;;;;;;3.35;3.15;;;22.20;52.70;;;;;;5016035;28;20193;-71
2022/06/04 01:58:58;;;;;;;3.38;3.17;;;22.20;52.70;;;;;;5014769;28;20231;-71
2022/06/04 02:01:27;;;;;;;3.20;3.00;;;22.20;52.70;;;;;;5016505;28;20580;-72
2022/06/04 02:03:58;;;;;;;3.22;3.03;;;22.20;52.70;;;;;;5014864;28;20200;-71
2022/06/04 02:06:27;;;;;;;3.60;3.30;;;22.20;52.70;;;;;;5014682;28;20247;-71
2022/06/04 02:08:56;;;;;;;3.58;3.38;;;22.20;52.80;;;;;;5015306;28;20215;-71
2022/06/04 02:11:24;;;;;;;3.40;3.20;;;22.10;52.70;;;;;;5015772;28;20609;-71
2022/06/04 02:13:52;;;;;;;3.60;3.40;;;22.10;52.70;;;;;;5014512;28;20201;-71
2022/06/04 02:16:23;;;;;;;3.47;3.28;;;22.10;52.60;;;;;;5014483;28;20597;-72
2022/06/04 02:18:50;;;;;;;3.42;3.22;;;22.10;52.70;;;;;;5015856;28;20212;-72
2022/06/04 02:21:18;;;;;;;3.40;3.20;;;22.10;52.70;;;;;;5015577;28;20292;-71
2022/06/04 02:23:45;;;;;;;3.67;3.40;;;22.10;52.60;;;;;;5014310;28;20205;-71
2022/06/04 02:26:12;;;;;;;3.78;3.47;;;22.10;52.70;;;;;;5014449;28;20197;-71
2022/06/04 02:28:39;;;;;;;3.50;3.30;;;22.10;52.80;;;;;;5015473;28;20212;-71
2022/06/04 02:31:10;;;;;;;3.30;3.10;;;22.10;52.70;;;;;;5015579;28;20634;-71
2022/06/04 02:33:43;;;;;;;3.10;2.90;;;22.10;52.70;;;;;;5015422;28;20188;-71
2022/06/04 02:36:12;;;;;;;3.45;3.25;;;22.10;52.70;;;;;;5014209;28;20193;-71
2022/06/04 02:38:43;;;;;;;3.38;3.17;;;22.10;52.60;;;;;;5014101;28;20394;-71
2022/06/04 02:41:14;;;;;;;3.20;3.00;;;22.10;52.70;;;;;;5015524;28;20176;-71
2022/06/04 02:43:42;;;;;;;3.33;3.10;;;22.10;52.60;;;;;;5116517;23;20233;-71
2022/06/04 02:46:14;;;;;;;3.83;3.53;;;22.10;53.30;;;;;;5014037;28;20216;-71
2022/06/04 02:48:45;;;;;;;3.30;3.10;;;22.00;52.50;;;;;;5013753;28;20231;-71
2022/06/04 02:51:13;;;;;;;3.25;3.05;;;22.00;52.50;;;;;;5013766;28;20241;-71
2022/06/04 02:53:41;;;;;;;3.33;3.13;;;22.00;52.60;;;;;;5013941;28;20676;-70
2022/06/04 02:56:10;;;;;;;3.40;3.10;;;22.00;52.50;;;;;;5014958;28;20263;-71
2022/06/04 02:58:38;;;;;;;3.28;3.08;;;22.00;52.50;;;;;;5013629;28;20230;-71
2022/06/04 03:01:05;;;;;;;3.50;3.22;;;22.00;52.50;;;;;;5013684;28;20193;-71
2022/06/04 03:03:32;;;;;;;3.35;3.15;;;22.00;52.60;;;;;;5014799;28;20192;-70
2022/06/04 03:06:03;;;;;;;3.75;3.55;;;22.00;52.60;;;;;;5014946;28;20221;-71
2022/06/04 03:08:31;;;;;;;3.53;3.33;;;22.00;53.20;;;;;;5013545;28;20235;-71
2022/06/04 03:10:58;;;;;;;3.40;3.10;;;22.00;52.50;;;;;;5014842;28;20279;-71
2022/06/04 03:13:26;;;;;;;3.20;3.00;;;22.00;52.50;;;;;;5013436;28;20631;-71
2022/06/04 03:15:53;;;;;;;3.30;3.08;;;22.00;52.60;;;;;;5014209;28;20564;-71
2022/06/04 03:18:20;;;;;;;3.55;3.30;;;21.90;52.60;;;;;;5013627;28;20225;-71
2022/06/04 03:20:47;;;;;;;3.40;3.20;;;22.00;53.30;;;;;;5014528;28;20189;-71
2022/06/04 03:23:17;;;;;;;3.40;3.10;;;22.00;52.60;;;;;;5014381;28;20680;-71
2022/06/04 03:25:44;;;;;;;3.33;3.13;;;22.00;52.50;;;;;;5013650;28;20197;-71
2022/06/04 03:28:11;;;;;;;3.15;2.95;;;22.00;52.40;;;;;;5013112;28;20255;-71
2022/06/04 03:30:39;;;;;;;3.35;3.15;;;22.10;52.30;;;;;;5013147;28;20201;-71
2022/06/04 03:33:06;;;;;;;3.30;3.10;;;22.10;52.30;;;;;;5014357;28;20570;-71
2022/06/04 03:35:34;;;;;;;3.20;3.00;;;22.20;52.20;;;;;;5015710;28;20201;-71
2022/06/04 03:38:01;;;;;;;3.15;2.95;;;22.20;51.90;;;;;;5022614;28;20255;-71
2022/06/04 03:40:29;;;;;;;3.28;3.08;;;22.20;52.00;;;;;;5014515;28;20193;-72
2022/06/04 03:42:56;;;;;;;3.30;3.10;;;22.30;51.90;;;;;;5014077;28;20201;-72
2022/06/04 03:45:24;;;;;;;3.25;3.05;;;22.30;51.80;;;;;;5013235;28;20228;-72
2022/06/04 03:47:51;;;;;;;3.30;3.10;;;22.40;51.80;;;;;;5012736;28;20571;-71
2022/06/04 03:50:18;;;;;;;3.08;2.88;;;22.40;51.70;;;;;;5012846;28;20193;-72
2022/06/04 03:52:47;;;;;;;3.10;2.90;;;22.40;51.60;;;;;;5012681;28;20243;-71
2022/06/04 03:55:15;;;;;;;3.38;3.17;;;22.40;51.50;;;;;;5013961;28;20197;-71
2022/06/04 03:57:45;;;;;;;3.40;3.10;;;22.50;51.50;;;;;;5012687;28;20196;-71
2022/06/04 04:00:15;;;;;;;3.30;3.10;;;22.50;51.50;;;;;;5012819;28;20661;-71
2022/06/04 04:02:45;;;;;;;3.10;2.90;;;22.50;51.50;;;;;;5011877;28;20213;-71
2022/06/04 04:05:15;;;;;;;3.22;3.03;;;22.50;51.40;;;;;;5012769;28;20237;-71
2022/06/04 04:07:42;;;;;;;3.28;3.08;;;22.50;51.30;;;;;;5012513;28;20196;-71
2022/06/04 04:10:09;;;;;;;3.22;3.03;;;22.60;51.30;;;;;;5013752;28;20204;-71
2022/06/04 04:12:36;;;;;;;2.97;2.78;;;22.60;51.20;;;;;;5012469;28;20228;-71
2022/06/04 04:15:06;;;;;;;2.85;2.65;;;22.60;51.20;;;;;;5012418;28;20211;-71
2022/06/04 04:17:36;;;;;;;3.63;3.20;;;22.60;51.20;;;;;;5012464;28;20576;-71
2022/06/04 04:20:05;;;;;;;3.30;3.10;;;22.60;51.10;;;;;;5013680;28;20185;-71
2022/06/04 04:22:33;;;;;;;3.15;2.95;;;22.60;51.10;;;;;;5014126;28;20189;-71
2022/06/04 04:25:00;;;;;;;3.33;3.03;;;22.60;51.00;;;;;;5012548;28;20200;-71
2022/06/04 04:27:27;;;;;;;3.20;3.00;;;22.60;51.00;;;;;;5012476;28;20233;-73
2022/06/04 04:29:54;;;;;;;3.13;2.83;;;22.60;51.00;;;;;;5012457;28;20206;-72
2022/06/04 04:32:23;;;;;;;3.15;2.95;;;22.60;51.00;;;;;;5012225;28;20217;-71
2022/06/04 04:34:50;;;;;;;3.25;3.05;;;22.60;50.90;;;;;;5012760;28;20199;-71
2022/06/04 04:37:17;;;;;;;2.97;2.78;;;22.70;51.00;;;;;;5012400;28;20291;-71
2022/06/04 04:39:44;;;;;;;2.88;2.67;;;22.70;50.90;;;;;;5013574;28;20216;-71
2022/06/04 04:42:11;;;;;;;3.13;2.92;;;22.70;51.40;;;;;;5012295;28;20188;-72
2022/06/04 04:44:38;;;;;;;3.50;3.30;;;22.80;50.70;;;;;;5012061;28;20200;-70
2022/06/04 04:47:05;;;;;;;3.50;3.20;;;23.00;50.50;;;;;;5012169;28;20197;-71
2022/06/04 04:49:33;;;;;;;4.05;3.70;;;23.10;50.90;;;;;;5012020;28;20244;-71
2022/06/04 04:52:01;;;;;;;3.55;3.30;;;23.30;52.90;;;;;;5011996;28;20224;-71
2022/06/04 04:54:28;;;;;;;4.07;3.70;;;23.30;52.90;;;;;;5012139;28;20201;-71
2022/06/04 04:56:54;;;;;;;4.78;3.67;;;23.40;53.00;;;;;;5013371;28;20212;-71
2022/06/04 04:59:22;;;;;;;4.40;4.00;;;23.50;53.50;;;;;;5013584;28;20209;-71
2022/06/04 05:01:49;;;;;;;4.72;3.88;;;23.70;54.20;;;;;;5013485;28;20805;-71
2022/06/04 05:04:16;;;;;;;5.28;4.03;;;23.80;53.80;;;;;;5013237;28;20204;-71
2022/06/04 05:06:44;;;;;;;4.63;4.22;;;23.90;53.90;;;;;;5012011;28;20614;-70
2022/06/04 05:09:11;;;;;;;4.55;4.15;;;23.90;54.50;;;;;;5013216;28;20204;-71
2022/06/04 05:11:38;;;;;;;4.30;4.00;;;23.80;54.20;;;;;;5012026;28;20196;-71
2022/06/04 05:14:05;;;;;;;4.15;3.85;;;23.80;54.30;;;;;;5012810;28;20197;-71
2022/06/04 05:16:33;;;;;;;4.50;4.10;;;23.80;54.70;;;;;;5017300;28;20188;-71
2022/06/04 05:19:01;;;;;;;3.97;3.67;;;23.70;55.30;;;;;;5015486;28;20217;-71
2022/06/04 05:21:37;;;;;;;3.55;3.28;;;23.60;54.80;;;;;;5015705;28;20691;-71
2022/06/04 05:24:07;;;;;;;4.13;3.72;;;23.60;53.80;;;;;;5016942;28;20173;-71
2022/06/04 05:26:34;;;;;;;3.97;3.67;;;23.50;53.40;;;;;;5015629;28;20196;-71
2022/06/04 05:29:01;;;;;;;4.13;3.63;;;23.50;53.00;;;;;;5015990;28;20224;-71
2022/06/04 05:31:28;;;;;;;3.88;3.55;;;23.50;52.90;;;;;;5016645;28;20275;-71
2022/06/04 05:33:55;;;;;;;4.20;3.80;;;23.50;52.90;;;;;;5015509;28;20197;-71
2022/06/04 05:36:22;;;;;;;3.55;3.25;;;23.50;52.70;;;;;;5015298;28;20205;-71
2022/06/04 05:38:49;;;;;;;4.03;3.72;;;23.50;52.80;;;;;;5015042;28;20228;-71
2022/06/04 05:41:17;;;;;;;3.70;3.50;;;23.50;52.60;;;;;;5015122;28;20204;-71
2022/06/04 05:43:45;;;;;;;4.00;3.70;;;23.50;52.70;;;;;;5015213;28;20231;-71
2022/06/04 05:46:14;;;;;;;3.60;3.33;;;23.50;53.00;;;;;;5016464;28;20193;-71
2022/06/04 05:48:42;;;;;;;3.97;3.58;;;23.50;52.70;;;;;;5015074;28;20224;-71
2022/06/04 05:51:10;;;;;;;3.65;3.45;;;23.40;52.40;;;;;;5016595;28;20685;-70
2022/06/04 05:53:37;;;;;;;4.75;3.72;;;23.40;52.50;;;;;;5014957;28;20570;-71
2022/06/04 05:56:10;;;;;;;3.85;3.50;;;23.40;52.40;;;;;;5014863;28;20204;-71
2022/06/04 05:58:39;;;;;;;4.57;4.18;;;23.40;52.50;;;;;;5014900;28;20311;-72
2022/06/04 06:01:07;;;;;;;3.40;3.20;;;23.40;52.90;;;;;;5014998;28;20236;-72
2022/06/04 06:03:34;;;;;;;3.60;3.30;;;23.40;52.60;;;;;;5016046;28;20196;-71
2022/06/04 06:06:02;;;;;;;3.47;2.90;;;23.40;52.60;;;;;;5014684;28;20555;-71
2022/06/04 06:08:29;;;;;;;3.45;3.25;;;23.40;52.60;;;;;;5015869;28;20220;-71
2022/06/04 06:10:56;;;;;;;4.82;3.58;;;23.40;52.70;;;;;;5014666;28;20292;-71
2022/06/04 06:13:23;;;;;;;3.15;2.95;;;23.40;52.50;;;;;;5014663;28;20220;-71
2022/06/04 06:15:51;;;;;;;3.60;3.30;;;23.40;52.40;;;;;;5015998;28;20204;-71
2022/06/04 06:18:18;;;;;;;3.42;3.20;;;23.40;52.30;;;;;;5015836;28;20698;-71
2022/06/04 06:20:45;;;;;;;3.47;3.17;;;23.40;52.30;;;;;;5015054;28;20205;-71
2022/06/04 06:23:13;;;;;;;3.47;3.13;;;23.40;52.20;;;;;;5014533;28;20629;-71
2022/06/04 06:25:40;;;;;;;3.47;3.17;;;23.40;52.20;;;;;;5025246;28;20189;-71
2022/06/04 06:28:07;;;;;;;3.28;3.00;;;23.40;52.00;;;;;;5031310;28;20307;-71
2022/06/04 06:30:34;;;;;;;3.10;2.80;;;23.40;52.00;;;;;;5014382;28;20220;-71
2022/06/04 06:33:03;;;;;;;3.28;3.00;;;23.40;52.00;;;;;;5014166;28;20255;-71
2022/06/04 06:35:31;;;;;;;3.42;3.17;;;23.40;51.90;;;;;;5015446;28;20197;-71
2022/06/04 06:37:58;;;;;;;2.90;2.70;;;23.40;52.00;;;;;;5014160;28;20220;-71
2022/06/04 06:40:25;;;;;;;3.03;2.80;;;23.40;52.00;;;;;;5015318;28;20635;-71
2022/06/04 06:42:52;;;;;;;3.55;3.25;;;23.40;52.00;;;;;;5015258;28;20276;-72
2022/06/04 06:45:19;;;;;;;3.25;3.00;;;23.40;52.10;;;;;;5014284;28;20193;-71
2022/06/04 06:47:47;;;;;;;3.40;3.20;;;23.30;51.90;;;;;;5013956;28;20229;-71
2022/06/04 06:50:17;;;;;;;3.40;3.10;;;23.40;52.00;;;;;;5013891;28;20638;-71
2022/06/04 06:52:44;;;;;;;3.75;3.35;;;23.40;52.00;;;;;;5013849;28;20217;-71
2022/06/04 06:55:11;;;;;;;3.10;2.90;;;23.40;52.20;;;;;;5013776;28;20295;-70
2022/06/04 06:57:38;;;;;;;3.53;3.22;;;23.40;52.00;;;;;;5014866;28;20661;-71
2022/06/04 07:00:06;;;;;;;3.65;3.17;;;23.40;52.00;;;;;;5013572;28;20232;-71
2022/06/04 07:02:34;;;;;;;3.25;3.05;;;23.40;51.80;;;;;;5013690;28;20758;-70
2022/06/04 07:05:01;;;;;;;3.45;3.15;;;23.40;51.80;;;;;;5015048;28;20193;-71
2022/06/04 07:07:31;;;;;;;4.60;2.90;;;23.40;51.80;;;;;;5013481;28;20291;-71
2022/06/04 07:09:58;;;;;;;3.03;2.83;;;23.50;51.70;;;;;;5015017;28;20709;-71
2022/06/04 07:12:25;;;;;;;3.85;3.55;;;23.50;51.70;;;;;;5013322;28;20216;-71
2022/06/04 07:14:52;;;;;;;3.10;2.90;;;23.50;51.80;;;;;;5014692;28;20185;-71
2022/06/04 07:17:19;;;;;;;3.45;3.22;;;23.50;51.80;;;;;;5013527;28;20200;-71
2022/06/04 07:19:46;;;;;;;3.33;3.00;;;23.50;51.70;;;;;;5013234;28;20777;-70
2022/06/04 07:22:13;;;;;;;2.90;2.70;;;23.50;51.70;;;;;;5014424;28;20204;-70
2022/06/04 07:24:42;;;;;;;3.60;3.30;;;23.50;51.70;;;;;;5014774;28;20736;-71
2022/06/04 07:27:09;;;;;;;3.72;3.30;;;23.50;51.70;;;;;;5013421;28;20204;-71
2022/06/04 07:29:37;;;;;;;3.35;3.05;;;23.60;51.70;;;;;;5013015;28;20303;-71
2022/06/04 07:32:04;;;;;;;3.65;3.35;;;23.50;51.50;;;;;;5014264;28;20193;-71
2022/06/04 07:34:31;;;;;;;3.72;3.42;;;23.60;51.50;;;;;;5013792;28;20598;-71
2022/06/04 07:36:58;;;;;;;4.22;3.80;;;23.60;51.40;;;;;;5013040;28;20196;-70
2022/06/04 07:39:25;;;;;;;3.50;3.17;;;23.70;51.10;;;;;;5015767;28;20311;-71
2022/06/04 07:41:54;;;;;;;3.40;3.20;;;23.90;51.00;;;;;;5020160;28;20203;-71
2022/06/04 07:44:23;;;;;;;3.50;3.20;;;24.00;50.60;;;;;;5034464;28;20208;-71
2022/06/04 07:46:50;;;;;;;3.42;3.13;;;24.20;50.40;;;;;;5013309;28;20255;-71
2022/06/04 07:49:18;;;;;;;3.20;2.90;;;24.30;50.00;;;;;;5012899;28;20244;-71
2022/06/04 07:51:45;;;;;;;3.40;3.20;;;24.40;49.80;;;;;;5012863;28;20288;-71
2022/06/04 07:54:13;;;;;;;3.50;3.20;;;24.40;49.70;;;;;;5012805;28;20209;-71
2022/06/04 07:56:40;;;;;;;3.72;3.42;;;24.40;49.70;;;;;;5012868;28;20251;-70
2022/06/04 07:59:09;;;;;;;3.30;3.00;;;24.40;49.70;;;;;;5013875;28;20213;-71
2022/06/04 08:01:37;;;;;;;3.35;3.10;;;24.40;49.60;;;;;;5012801;28;20201;-71
2022/06/04 08:04:04;;;;;;;2.60;2.50;;;24.50;49.40;;;;;;5013885;28;20184;-71
2022/06/04 08:06:31;;;;;;;3.10;2.90;;;24.50;49.40;;;;;;5012664;28;20635;-71
2022/06/04 08:08:59;;;;;;;3.10;2.90;;;24.60;49.30;;;;;;5012566;28;20216;-71
2022/06/04 08:11:31;;;;;;;3.40;3.08;;;24.60;49.20;;;;;;5012571;28;20196;-71
2022/06/04 08:13:59;;;;;;;3.08;2.88;;;24.70;49.00;;;;;;5013776;28;20212;-71
2022/06/04 08:16:28;;;;;;;3.00;2.80;;;24.70;48.70;;;;;;5012473;28;20303;-71
2022/06/04 08:18:55;;;;;;;3.30;3.00;;;24.80;48.60;;;;;;5012360;28;20271;-71
2022/06/04 08:21:22;;;;;;;3.30;3.08;;;24.90;48.40;;;;;;5012458;28;20200;-71
2022/06/04 08:23:49;;;;;;;3.15;2.95;;;24.90;48.20;;;;;;5012775;28;20279;-70
2022/06/04 08:26:16;;;;;;;2.88;2.63;;;25.10;48.10;;;;;;5012688;28;20208;-71
2022/06/04 08:28:43;;;;;;;3.03;2.72;;;25.10;47.90;;;;;;5028603;28;20276;-70
2022/06/04 08:31:12;;;;;;;2.88;2.67;;;25.10;47.80;;;;;;5031208;28;20201;-71
2022/06/04 08:33:41;;;;;;;2.90;2.70;;;25.10;47.80;;;;;;5015358;28;20208;-71
2022/06/04 08:36:09;;;;;;;2.92;2.72;;;25.10;47.80;;;;;;5012333;28;20645;-71
2022/06/04 08:38:36;;;;;;;2.60;2.40;;;25.20;47.80;;;;;;5012219;28;20589;-71
2022/06/04 08:41:04;;;;;;;2.70;2.50;;;25.30;47.60;;;;;;5012344;28;20224;-71
2022/06/04 08:43:34;;;;;;;2.83;2.63;;;25.40;47.40;;;;;;5013482;28;20197;-71
2022/06/04 08:46:02;;;;;;;2.70;2.50;;;25.40;47.00;;;;;;5013413;28;20195;-70
2022/06/04 08:48:32;;;;;;;3.30;3.00;;;25.50;47.00;;;;;;5012085;28;20311;-71
2022/06/04 08:51:00;;;;;;;3.15;2.95;;;25.50;46.80;;;;;;5016009;28;20196;-71
2022/06/04 08:53:28;;;;;;;2.72;2.55;;;25.60;46.80;;;;;;5015974;28;20217;-71
2022/06/04 08:58:55;;;;;;;2.75;2.53;;;25.80;46.20;;;;;;5015941;28;20347;-71
2022/06/04 09:01:24;;;;;;;2.97;2.72;;;25.90;45.80;;;;;;5015913;28;20219;-71
2022/06/04 09:03:55;;;;;;;2.88;2.53;;;26.00;45.70;;;;;;5016021;28;20692;-71
2022/06/04 09:06:31;;;;;;;2.80;2.60;;;26.00;45.70;;;;;;5017407;28;20634;-71
2022/06/04 09:09:00;;;;;;;2.75;2.55;;;26.00;45.80;;;;;;5017158;28;20205;-71
2022/06/04 09:11:28;;;;;;;2.83;2.63;;;25.90;45.80;;;;;;5017197;28;20197;-71
2022/06/04 09:14:17;;;;;;;3.05;2.80;;;25.90;45.80;;;;;;5015688;28;20247;-71
2022/06/04 09:16:46;;;;;;;2.72;2.53;;;25.90;45.90;;;;;;5016929;28;20271;-71
2022/06/04 09:19:15;;;;;;;3.05;2.83;;;25.90;46.30;;;;;;5016915;28;20212;-71
2022/06/04 09:21:44;;;;;;;2.70;2.55;;;25.80;46.00;;;;;;5015859;28;20291;-71
2022/06/04 09:24:11;;;;;;;2.80;2.60;;;25.90;45.80;;;;;;5015616;28;20203;-71
2022/06/04 09:26:41;;;;;;;2.80;2.60;;;26.00;45.80;;;;;;5015550;28;20197;-71
2022/06/04 09:29:23;;;;;;;2.78;2.58;;;26.10;45.70;;;;;;5015442;28;20727;-71
2022/06/04 09:31:56;;;;;;;2.65;2.45;;;26.10;45.40;;;;;;5015525;28;20235;-71
2022/06/04 09:34:25;;;;;;;2.65;2.45;;;26.20;45.30;;;;;;5016640;28;20200;-71
2022/06/04 09:36:53;;;;;;;2.35;2.22;;;26.30;45.10;;;;;;5016947;28;20201;-71
2022/06/04 09:39:23;;;;;;;2.85;2.65;;;26.40;44.90;;;;;;5015357;28;20294;-70
2022/06/04 09:41:52;;;;;;;3.00;2.80;;;26.40;44.90;;;;;;5015208;28;20204;-71
2022/06/04 09:44:18;;;;;;;2.85;2.65;;;26.40;44.90;;;;;;5015050;28;20204;-71
2022/06/04 09:46:48;;;;;;;2.40;2.30;;;26.30;45.00;;;;;;5015139;28;20625;-71
2022/06/04 09:49:25;;;;;;;2.72;2.53;;;26.20;45.10;;;;;;5014997;28;20232;-71
2022/06/04 09:51:54;;;;;;;2.65;2.45;;;26.10;45.40;;;;;;5015107;28;20192;-70
2022/06/04 09:54:24;;;;;;;2.88;2.67;;;26.10;45.70;;;;;;5016476;28;20212;-70
2022/06/04 09:56:53;;;;;;;3.17;2.38;;;26.00;46.20;;;;;;5015452;28;20629;-71
2022/06/04 09:59:22;;;;;;;2.70;2.50;;;26.00;45.70;;;;;;5014849;28;20221;-71
2022/06/04 10:01:56;;;;;;;2.80;2.60;;;26.00;45.80;;;;;;5014780;28;20184;-71
2022/06/04 10:04:24;;;;;;;3.13;2.92;;;25.90;45.80;;;;;;5014886;28;20212;-71
2022/06/04 10:06:51;;;;;;;2.83;2.63;;;25.90;45.80;;;;;;5014798;28;20204;-71
2022/06/04 10:12:07;;;;;;;2.63;2.47;;;25.90;45.90;;;;;;5015456;28;20196;-71
2022/06/04 10:14:35;;;;;;;2.22;2.10;;;25.80;45.90;;;;;;5014712;28;20251;-71
2022/06/04 10:17:02;;;;;;;2.70;2.50;;;25.80;46.00;;;;;;5014793;28;20227;-72
2022/06/04 10:19:31;;;;;;;2.50;2.40;;;25.80;46.10;;;;;;5015885;28;20244;-71
2022/06/04 10:22:07;;;;;;;2.97;2.78;;;25.70;46.10;;;;;;5014534;28;20207;-71
2022/06/04 10:24:42;;;;;;;2.95;2.75;;;25.70;46.30;;;;;;5014513;28;20201;-71
2022/06/04 10:27:22;;;;;;;2.70;2.50;;;25.60;46.40;;;;;;5014403;28;20245;-71
2022/06/04 10:30:22;;;;;;;2.90;2.70;;;25.60;46.60;;;;;;5015585;28;20212;-71
2022/06/04 10:33:05;;;;;;;3.00;2.80;;;25.50;46.70;;;;;;5015557;28;20299;-71
2022/06/04 10:35:42;;;;;;;2.83;2.63;;;25.40;46.80;;;;;;5014428;28;20216;-71
2022/06/04 10:38:22;;;;;;;2.83;2.63;;;25.30;46.90;;;;;;5014192;28;20295;-71
2022/06/04 10:40:58;;;;;;;2.83;2.63;;;25.30;47.10;;;;;;5014173;28;20642;-71
2022/06/04 10:43:45;;;;;;;2.60;2.50;;;25.20;47.20;;;;;;5015357;28;20200;-69
2022/06/04 10:46:17;;;;;;;2.80;2.60;;;25.20;47.30;;;;;;5015430;28;20351;-70
2022/06/04 10:49:03;;;;;;;2.63;2.53;;;25.10;47.30;;;;;;5015580;28;20263;-70
2022/06/04 10:51:38;;;;;;;2.78;2.58;;;25.10;47.50;;;;;;5015756;28;20207;-70
2022/06/04 10:54:09;;;;;;;2.60;2.50;;;25.10;47.50;;;;;;5014299;28;20219;-70
2022/06/04 10:56:41;;;;;;;2.65;2.45;;;25.10;47.50;;;;;;5013947;28;20216;-70
2022/06/04 10:59:11;;;;;;;2.92;2.72;;;25.10;47.50;;;;;;5014026;28;20244;-70
2022/06/04 11:01:43;;;;;;;2.60;2.45;;;25.10;47.70;;;;;;5015262;28;20196;-70
2022/06/04 11:04:17;;;;;;;3.10;2.80;;;25.10;47.50;;;;;;5013802;28;20287;-70
2022/06/04 11:06:49;;;;;;;2.88;2.67;;;25.10;47.50;;;;;;5013692;28;20259;-70
2022/06/04 11:09:17;;;;;;;2.78;2.58;;;25.10;47.60;;;;;;5014691;28;20709;-70
2022/06/04 11:11:49;;;;;;;2.70;2.53;;;25.00;47.60;;;;;;5013147;28;20211;-70
2022/06/04 11:14:19;;;;;;;2.70;2.60;;;25.00;47.60;;;;;;5014942;28;20193;-70
2022/06/04 11:16:49;;;;;;;2.72;2.58;;;25.00;47.70;;;;;;5013665;28;20293;-69
2022/06/04 11:19:17;;;;;;;3.17;2.70;;;24.90;47.70;;;;;;5013413;28;20220;-70
2022/06/04 11:21:47;;;;;;;2.90;2.70;;;24.90;47.70;;;;;;5013373;28;20197;-69
2022/06/04 11:24:16;;;;;;;3.00;2.80;;;24.90;47.90;;;;;;5013380;28;20616;-69
2022/06/04 11:26:46;;;;;;;2.85;2.65;;;24.90;48.00;;;;;;5014555;28;20275;-70
2022/06/04 11:29:14;;;;;;;2.53;2.42;;;24.90;48.10;;;;;;5014370;28;20227;-70
2022/06/04 11:32:03;;;;;;;2.75;2.55;;;24.80;48.00;;;;;;5014620;28;20272;-69
2022/06/04 11:34:54;;;;;;;2.83;2.67;;;24.90;48.00;;;;;;5013324;28;20596;-69
2022/06/04 11:37:38;;;;;;;2.88;2.67;;;24.90;48.60;;;;;;5014495;28;20185;-70
2022/06/04 11:40:21;;;;;;;3.17;2.90;;;24.90;47.90;;;;;;5014606;28;20231;-69
2022/06/04 11:42:56;;;;;;;3.00;2.80;;;24.90;47.90;;;;;;5013050;28;20240;-70
2022/06/04 11:45:33;;;;;;;2.80;2.60;;;24.90;47.90;;;;;;5014986;28;20299;-70
2022/06/04 11:48:15;;;;;;;2.95;2.75;;;24.90;48.00;;;;;;5015987;28;20215;-70
2022/06/04 11:50:45;;;;;;;4.10;3.30;;;24.90;47.90;;;;;;5013895;28;20221;-69
2022/06/04 11:53:20;;;;;;;3.90;3.47;;;24.90;49.10;;;;;;5014470;28;20189;-69
2022/06/04 11:55:51;;;;;;;3.80;3.50;;;24.90;49.10;;;;;;5014015;28;20201;-70
2022/06/04 11:58:33;;;;;;;3.45;3.20;;;24.90;49.10;;;;;;5014025;28;20271;-70
2022/06/04 12:01:02;;;;;;;3.60;3.30;;;24.80;49.00;;;;;;5012681;28;20204;-69
2022/06/04 12:03:31;;;;;;;3.80;3.50;;;24.80;48.80;;;;;;5013577;28;20193;-70
2022/06/04 12:06:00;;;;;;;3.60;3.30;;;24.80;48.70;;;;;;5012701;28;20216;-69
2022/06/04 12:08:29;;;;;;;6.45;3.33;;;24.90;48.80;;;;;;5013864;28;20223;-69
2022/06/04 12:11:06;;;;;;;3.67;3.30;;;24.90;48.70;;;;;;5012902;28;20574;-69
2022/06/04 12:13:38;;;;;;;3.63;3.10;;;24.90;48.70;;;;;;5014043;28;20203;-69
2022/06/04 12:16:10;;;;;;;3.47;3.17;;;24.90;48.60;;;;;;5012816;28;20197;-69
2022/06/04 12:18:42;;;;;;;3.20;3.00;;;24.90;48.50;;;;;;5013948;28;20208;-69
2022/06/04 12:24:19;;;;;;;3.40;3.10;;;24.90;48.40;;;;;;5012958;28;20263;-70
2022/06/04 12:26:47;;;;;;;3.28;2.97;;;25.00;48.40;;;;;;5012488;28;20282;-69
2022/06/04 12:29:33;;;;;;;3.80;3.40;;;25.00;48.40;;;;;;5013631;28;20270;-70
2022/06/04 12:32:02;;;;;;;3.35;3.15;;;25.00;48.30;;;;;;5012396;28;20327;-70
2022/06/04 12:34:32;;;;;;;3.60;3.40;;;25.10;48.40;;;;;;5013450;28;20580;-69
2022/06/04 12:36:59;;;;;;;4.03;3.30;;;25.10;48.50;;;;;;5012730;28;20207;-69
2022/06/04 12:39:28;;;;;;;4.15;3.85;;;25.10;48.30;;;;;;5012362;28;20274;-69
2022/06/04 12:41:56;;;;;;;4.90;4.45;;;25.00;47.90;;;;;;5012296;28;20258;-70
2022/06/04 12:44:26;;;;;;;3.80;3.25;;;25.10;48.50;;;;;;5012248;28;20196;-71
2022/06/04 12:46:54;;;;;;;4.40;4.00;;;25.10;48.70;;;;;;5012162;28;20200;-70
2022/06/04 12:49:33;;;;;;;6.93;3.85;;;25.10;48.90;;;;;;5012054;28;20224;-70
2022/06/04 12:52:02;;;;;;;7.07;3.85;;;25.10;49.20;;;;;;5013395;28;20187;-70
2022/06/04 12:54:43;;;;;;;4.43;4.03;;;25.10;49.30;;;;;;5011995;28;20217;-70
2022/06/04 12:57:32;;;;;;;4.85;4.20;;;25.20;49.60;;;;;;5012244;28;20561;-70
2022/06/04 13:00:35;;;;;;;4.20;3.80;;;25.20;49.90;;;;;;5009952;28;20215;-70
2022/06/04 13:03:40;;;;;;;5.03;4.53;;;25.20;49.90;;;;;;5012196;28;20613;-70
2022/06/04 13:06:33;;;;;;;4.90;4.35;;;25.30;50.20;;;;;;5012011;28;20631;-70
2022/06/04 13:09:05;;;;;;;4.63;4.30;;;25.30;50.00;;;;;;5011997;28;20255;-70
2022/06/04 13:11:50;;;;;;;5.00;4.60;;;25.20;50.40;;;;;;5011827;28;20203;-70
2022/06/04 13:14:25;;;;;;;5.47;4.40;;;25.30;50.70;;;;;;5012008;28;20677;-70
2022/06/04 13:16:55;;;;;;;5.40;4.65;;;25.30;51.00;;;;;;5012070;28;20196;-70
2022/06/04 13:19:49;;;;;;;7.47;5.10;;;25.30;52.10;;;;;;5011924;28;20286;-72